sensor_id;sensor_type;location;lat;lon;timestamp;P1;durP1;ratioP1;P2;durP2;ratioP2
1507;SDS011;745;48.586;10.032;2022-12-08T00:02:59;8.13;;;6.07;;
1507;SDS011;745;48.586;10.032;2022-12-08T00:07:30;7.60;;;5.20;;
1507;SDS011;745;48.586;10.032;2022-12-08T00:12:19;7.93;;;5.30;;
1507;SDS011;745;48.586;10.032;2022-12-08T00:16:50;9.70;;;6.03;;
1507;SDS011;745;48.586;10.032;2022-12-08T00:21:21;8.27;;;5.50;;
1507;SDS011;745;48.586;10.032;2022-12-08T00:25:51;8.50;;;5.97;;
1507;SDS011;745;48.586;10.032;2022-12-08T00:30:22;7.80;;;6.20;;
1507;SDS011;745;48.586;10.032;2022-12-08T00:34:52;6.53;;;5.07;;
1507;SDS011;745;48.586;10.032;2022-12-08T00:39:23;5.97;;;5.00;;
1507;SDS011;745;48.586;10.032;2022-12-08T00:43:54;6.70;;;5.33;;
1507;SDS011;745;48.586;10.032;2022-12-08T00:48:24;7.87;;;5.63;;
1507;SDS011;745;48.586;10.032;2022-12-08T00:52:54;7.80;;;5.27;;
1507;SDS011;745;48.586;10.032;2022-12-08T00:57:25;8.20;;;5.60;;
1507;SDS011;745;48.586;10.032;2022-12-08T01:01:56;10.63;;;6.13;;
1507;SDS011;745;48.586;10.032;2022-12-08T01:06:26;7.30;;;5.60;;
1507;SDS011;745;48.586;10.032;2022-12-08T01:11:01;9.60;;;6.60;;
1507;SDS011;745;48.586;10.032;2022-12-08T01:15:33;10.00;;;6.20;;
1507;SDS011;745;48.586;10.032;2022-12-08T01:20:05;8.73;;;6.00;;
1507;SDS011;745;48.586;10.032;2022-12-08T01:24:36;7.10;;;6.40;;
1507;SDS011;745;48.586;10.032;2022-12-08T01:29:07;11.63;;;7.10;;
1507;SDS011;745;48.586;10.032;2022-12-08T01:33:38;10.93;;;7.03;;
1507;SDS011;745;48.586;10.032;2022-12-08T01:38:09;10.70;;;7.23;;
1507;SDS011;745;48.586;10.032;2022-12-08T01:42:39;10.57;;;6.70;;
1507;SDS011;745;48.586;10.032;2022-12-08T01:47:10;10.80;;;7.37;;
1507;SDS011;745;48.586;10.032;2022-12-08T01:51:46;11.53;;;8.27;;
1507;SDS011;745;48.586;10.032;2022-12-08T01:56:31;14.63;;;8.27;;
1507;SDS011;745;48.586;10.032;2022-12-08T02:01:08;10.10;;;7.13;;
1507;SDS011;745;48.586;10.032;2022-12-08T02:05:39;16.10;;;9.43;;
1507;SDS011;745;48.586;10.032;2022-12-08T02:10:11;13.20;;;8.13;;
1507;SDS011;745;48.586;10.032;2022-12-08T02:14:44;14.27;;;8.20;;
1507;SDS011;745;48.586;10.032;2022-12-08T02:24:29;13.30;;;7.63;;
1507;SDS011;745;48.586;10.032;2022-12-08T02:43:28;17.57;;;9.23;;
1507;SDS011;745;48.586;10.032;2022-12-08T02:48:01;17.37;;;10.30;;
1507;SDS011;745;48.586;10.032;2022-12-08T03:06:46;16.93;;;9.37;;
1507;SDS011;745;48.586;10.032;2022-12-08T03:11:39;14.20;;;9.40;;
1507;SDS011;745;48.586;10.032;2022-12-08T03:16:15;16.90;;;8.70;;
1507;SDS011;745;48.586;10.032;2022-12-08T03:20:49;17.50;;;10.20;;
1507;SDS011;745;48.586;10.032;2022-12-08T03:25:21;16.67;;;9.53;;
1507;SDS011;745;48.586;10.032;2022-12-08T03:29:57;20.47;;;10.20;;
1507;SDS011;745;48.586;10.032;2022-12-08T03:34:28;14.87;;;8.90;;
1507;SDS011;745;48.586;10.032;2022-12-08T03:38:59;23.07;;;11.73;;
1507;SDS011;745;48.586;10.032;2022-12-08T03:43:30;17.50;;;11.07;;
1507;SDS011;745;48.586;10.032;2022-12-08T03:48:00;21.53;;;9.97;;
1507;SDS011;745;48.586;10.032;2022-12-08T03:52:31;17.70;;;10.13;;
1507;SDS011;745;48.586;10.032;2022-12-08T03:57:02;18.90;;;10.60;;
1507;SDS011;745;48.586;10.032;2022-12-08T04:01:32;17.83;;;9.73;;
1507;SDS011;745;48.586;10.032;2022-12-08T04:06:03;16.50;;;9.47;;
1507;SDS011;745;48.586;10.032;2022-12-08T04:10:34;16.90;;;9.77;;
1507;SDS011;745;48.586;10.032;2022-12-08T04:15:06;31.63;;;15.70;;
1507;SDS011;745;48.586;10.032;2022-12-08T04:19:37;20.77;;;13.33;;
1507;SDS011;745;48.586;10.032;2022-12-08T04:24:09;20.83;;;12.40;;
1507;SDS011;745;48.586;10.032;2022-12-08T04:28:40;23.27;;;13.37;;
1507;SDS011;745;48.586;10.032;2022-12-08T04:33:10;21.77;;;12.57;;
1507;SDS011;745;48.586;10.032;2022-12-08T04:37:41;22.40;;;13.00;;
1507;SDS011;745;48.586;10.032;2022-12-08T04:42:13;22.47;;;14.37;;
1507;SDS011;745;48.586;10.032;2022-12-08T04:46:43;23.73;;;12.80;;
1507;SDS011;745;48.586;10.032;2022-12-08T04:51:15;27.23;;;14.17;;
1507;SDS011;745;48.586;10.032;2022-12-08T04:55:46;27.50;;;15.37;;
1507;SDS011;745;48.586;10.032;2022-12-08T05:00:18;24.63;;;14.03;;
1507;SDS011;745;48.586;10.032;2022-12-08T05:04:49;25.17;;;14.00;;
1507;SDS011;745;48.586;10.032;2022-12-08T05:09:19;24.57;;;13.30;;
1507;SDS011;745;48.586;10.032;2022-12-08T05:13:50;20.03;;;11.50;;
1507;SDS011;745;48.586;10.032;2022-12-08T05:18:20;21.77;;;12.60;;
1507;SDS011;745;48.586;10.032;2022-12-08T05:22:51;21.47;;;14.07;;
1507;SDS011;745;48.586;10.032;2022-12-08T05:27:21;24.77;;;13.50;;
1507;SDS011;745;48.586;10.032;2022-12-08T05:31:52;21.30;;;12.63;;
1507;SDS011;745;48.586;10.032;2022-12-08T05:36:22;25.30;;;14.13;;
1507;SDS011;745;48.586;10.032;2022-12-08T05:40:52;24.67;;;14.40;;
1507;SDS011;745;48.586;10.032;2022-12-08T05:45:23;19.97;;;12.03;;
1507;SDS011;745;48.586;10.032;2022-12-08T05:49:53;21.40;;;11.87;;
1507;SDS011;745;48.586;10.032;2022-12-08T05:54:24;24.00;;;12.47;;
1507;SDS011;745;48.586;10.032;2022-12-08T05:58:54;21.30;;;12.40;;
1507;SDS011;745;48.586;10.032;2022-12-08T06:03:25;15.63;;;9.87;;
1507;SDS011;745;48.586;10.032;2022-12-08T06:07:55;17.77;;;10.37;;
1507;SDS011;745;48.586;10.032;2022-12-08T06:12:26;17.67;;;10.53;;
1507;SDS011;745;48.586;10.032;2022-12-08T06:16:56;16.33;;;9.73;;
1507;SDS011;745;48.586;10.032;2022-12-08T06:21:27;15.37;;;10.47;;
1507;SDS011;745;48.586;10.032;2022-12-08T06:26:01;16.00;;;9.97;;
1507;SDS011;745;48.586;10.032;2022-12-08T06:30:36;18.07;;;9.10;;
1507;SDS011;745;48.586;10.032;2022-12-08T06:35:07;12.57;;;8.40;;
1507;SDS011;745;48.586;10.032;2022-12-08T06:39:38;13.37;;;9.73;;
1507;SDS011;745;48.586;10.032;2022-12-08T06:44:08;28.57;;;15.27;;
1507;SDS011;745;48.586;10.032;2022-12-08T06:48:39;27.80;;;15.40;;
1507;SDS011;745;48.586;10.032;2022-12-08T06:53:10;25.57;;;13.40;;
1507;SDS011;745;48.586;10.032;2022-12-08T06:57:42;24.00;;;14.23;;
1507;SDS011;745;48.586;10.032;2022-12-08T07:02:12;35.73;;;17.83;;
1507;SDS011;745;48.586;10.032;2022-12-08T07:06:43;31.63;;;17.20;;
1507;SDS011;745;48.586;10.032;2022-12-08T07:11:13;35.30;;;17.07;;
1507;SDS011;745;48.586;10.032;2022-12-08T07:15:44;21.80;;;12.90;;
1507;SDS011;745;48.586;10.032;2022-12-08T07:20:15;20.57;;;12.30;;
1507;SDS011;745;48.586;10.032;2022-12-08T07:24:45;21.50;;;12.20;;
1507;SDS011;745;48.586;10.032;2022-12-08T07:29:16;16.63;;;10.33;;
1507;SDS011;745;48.586;10.032;2022-12-08T07:33:47;18.00;;;10.40;;
1507;SDS011;745;48.586;10.032;2022-12-08T07:38:17;16.17;;;9.53;;
1507;SDS011;745;48.586;10.032;2022-12-08T07:42:48;14.43;;;8.60;;
1507;SDS011;745;48.586;10.032;2022-12-08T07:47:18;11.80;;;8.37;;
1507;SDS011;745;48.586;10.032;2022-12-08T07:51:49;11.63;;;8.20;;
1507;SDS011;745;48.586;10.032;2022-12-08T07:56:19;13.00;;;8.27;;
1507;SDS011;745;48.586;10.032;2022-12-08T08:00:50;11.20;;;7.83;;
1507;SDS011;745;48.586;10.032;2022-12-08T08:05:22;16.73;;;10.10;;
1507;SDS011;745;48.586;10.032;2022-12-08T08:09:52;12.67;;;8.93;;
1507;SDS011;745;48.586;10.032;2022-12-08T08:14:23;14.17;;;8.90;;
1507;SDS011;745;48.586;10.032;2022-12-08T08:18:53;12.60;;;8.20;;
1507;SDS011;745;48.586;10.032;2022-12-08T08:23:24;9.80;;;6.90;;
1507;SDS011;745;48.586;10.032;2022-12-08T08:27:54;12.83;;;7.00;;
1507;SDS011;745;48.586;10.032;2022-12-08T08:32:24;10.07;;;6.77;;
1507;SDS011;745;48.586;10.032;2022-12-08T08:36:55;9.17;;;6.17;;
1507;SDS011;745;48.586;10.032;2022-12-08T08:41:25;10.10;;;7.40;;
1507;SDS011;745;48.586;10.032;2022-12-08T08:45:59;7.60;;;6.00;;
1507;SDS011;745;48.586;10.032;2022-12-08T08:50:30;8.93;;;6.40;;
1507;SDS011;745;48.586;10.032;2022-12-08T08:55:01;11.00;;;7.53;;
1507;SDS011;745;48.586;10.032;2022-12-08T08:59:32;12.77;;;8.87;;
1507;SDS011;745;48.586;10.032;2022-12-08T09:04:02;14.83;;;9.90;;
1507;SDS011;745;48.586;10.032;2022-12-08T09:08:33;18.60;;;12.00;;
1507;SDS011;745;48.586;10.032;2022-12-08T09:13:03;15.73;;;10.93;;
1507;SDS011;745;48.586;10.032;2022-12-08T09:17:34;15.60;;;10.60;;
1507;SDS011;745;48.586;10.032;2022-12-08T09:22:05;15.63;;;11.40;;
1507;SDS011;745;48.586;10.032;2022-12-08T09:26:35;16.87;;;10.73;;
1507;SDS011;745;48.586;10.032;2022-12-08T09:31:05;15.23;;;11.10;;
1507;SDS011;745;48.586;10.032;2022-12-08T09:35:36;15.20;;;10.40;;
1507;SDS011;745;48.586;10.032;2022-12-08T09:40:06;16.43;;;10.83;;
1507;SDS011;745;48.586;10.032;2022-12-08T09:44:42;14.90;;;9.30;;
1507;SDS011;745;48.586;10.032;2022-12-08T09:49:32;11.63;;;8.70;;
1507;SDS011;745;48.586;10.032;2022-12-08T09:54:11;12.60;;;9.07;;
1507;SDS011;745;48.586;10.032;2022-12-08T09:58:56;13.67;;;9.40;;
1507;SDS011;745;48.586;10.032;2022-12-08T10:03:29;15.03;;;9.90;;
1507;SDS011;745;48.586;10.032;2022-12-08T10:08:02;13.00;;;9.87;;
1507;SDS011;745;48.586;10.032;2022-12-08T10:17:31;12.73;;;9.60;;
1507;SDS011;745;48.586;10.032;2022-12-08T10:22:21;12.00;;;9.13;;
1507;SDS011;745;48.586;10.032;2022-12-08T10:26:53;12.57;;;8.97;;
1507;SDS011;745;48.586;10.032;2022-12-08T10:31:24;10.63;;;7.83;;
1507;SDS011;745;48.586;10.032;2022-12-08T10:35:55;10.07;;;7.70;;
1507;SDS011;745;48.586;10.032;2022-12-08T10:40:28;10.23;;;7.60;;
1507;SDS011;745;48.586;10.032;2022-12-08T10:49:39;10.97;;;8.57;;
1507;SDS011;745;48.586;10.032;2022-12-08T10:54:32;7.70;;;6.90;;
1507;SDS011;745;48.586;10.032;2022-12-08T10:59:06;10.90;;;8.27;;
1507;SDS011;745;48.586;10.032;2022-12-08T11:08:20;11.20;;;8.20;;
1507;SDS011;745;48.586;10.032;2022-12-08T11:12:50;11.53;;;8.63;;
1507;SDS011;745;48.586;10.032;2022-12-08T11:21:51;8.93;;;7.30;;
1507;SDS011;745;48.586;10.032;2022-12-08T11:26:25;10.10;;;7.40;;
1507;SDS011;745;48.586;10.032;2022-12-08T11:31:03;9.03;;;7.53;;
1507;SDS011;745;48.586;10.032;2022-12-08T11:35:44;9.23;;;7.20;;
1507;SDS011;745;48.586;10.032;2022-12-08T11:40:36;9.40;;;7.57;;
1507;SDS011;745;48.586;10.032;2022-12-08T11:45:11;10.33;;;7.60;;
1507;SDS011;745;48.586;10.032;2022-12-08T11:49:55;10.67;;;7.63;;
1507;SDS011;745;48.586;10.032;2022-12-08T11:54:47;9.37;;;6.73;;
1507;SDS011;745;48.586;10.032;2022-12-08T11:59:28;10.60;;;8.07;;
1507;SDS011;745;48.586;10.032;2022-12-08T12:04:11;10.53;;;7.87;;
1507;SDS011;745;48.586;10.032;2022-12-08T12:09:32;10.13;;;8.07;;
1507;SDS011;745;48.586;10.032;2022-12-08T12:18:56;9.57;;;7.50;;
1507;SDS011;745;48.586;10.032;2022-12-08T12:23:34;9.00;;;6.90;;
1507;SDS011;745;48.586;10.032;2022-12-08T12:28:06;9.50;;;6.73;;
1507;SDS011;745;48.586;10.032;2022-12-08T12:32:51;9.70;;;7.60;;
1507;SDS011;745;48.586;10.032;2022-12-08T12:37:34;9.50;;;6.87;;
1507;SDS011;745;48.586;10.032;2022-12-08T12:42:07;9.40;;;6.80;;
1507;SDS011;745;48.586;10.032;2022-12-08T12:56:07;7.00;;;5.60;;
1507;SDS011;745;48.586;10.032;2022-12-08T13:00:39;6.17;;;5.00;;
1507;SDS011;745;48.586;10.032;2022-12-08T13:05:28;6.27;;;5.20;;
1507;SDS011;745;48.586;10.032;2022-12-08T13:10:02;11.20;;;6.77;;
1507;SDS011;745;48.586;10.032;2022-12-08T13:14:55;9.17;;;6.80;;
1507;SDS011;745;48.586;10.032;2022-12-08T13:19:30;9.00;;;7.40;;
1507;SDS011;745;48.586;10.032;2022-12-08T13:33:36;11.80;;;8.53;;
1507;SDS011;745;48.586;10.032;2022-12-08T13:38:10;9.13;;;8.00;;
1507;SDS011;745;48.586;10.032;2022-12-08T13:47:29;8.93;;;7.57;;
1507;SDS011;745;48.586;10.032;2022-12-08T13:52:03;36.90;;;21.40;;
1507;SDS011;745;48.586;10.032;2022-12-08T13:56:39;24.30;;;17.53;;
1507;SDS011;745;48.586;10.032;2022-12-08T14:01:16;34.80;;;23.40;;
1507;SDS011;745;48.586;10.032;2022-12-08T14:05:49;36.00;;;23.93;;
1507;SDS011;745;48.586;10.032;2022-12-08T14:10:21;26.53;;;18.53;;
1507;SDS011;745;48.586;10.032;2022-12-08T14:14:58;18.57;;;14.37;;
1507;SDS011;745;48.586;10.032;2022-12-08T14:19:30;34.03;;;20.90;;
1507;SDS011;745;48.586;10.032;2022-12-08T14:24:02;25.73;;;16.27;;
1507;SDS011;745;48.586;10.032;2022-12-08T14:28:33;37.80;;;23.67;;
1507;SDS011;745;48.586;10.032;2022-12-08T14:33:03;37.80;;;23.10;;
1507;SDS011;745;48.586;10.032;2022-12-08T14:37:39;26.33;;;18.03;;
1507;SDS011;745;48.586;10.032;2022-12-08T14:42:22;24.33;;;16.00;;
1507;SDS011;745;48.586;10.032;2022-12-08T14:47:07;18.80;;;14.13;;
1507;SDS011;745;48.586;10.032;2022-12-08T14:51:39;22.37;;;15.90;;
1507;SDS011;745;48.586;10.032;2022-12-08T15:00:57;18.10;;;12.97;;
1507;SDS011;745;48.586;10.032;2022-12-08T15:05:28;22.50;;;14.80;;
1507;SDS011;745;48.586;10.032;2022-12-08T15:19:27;19.27;;;14.03;;
1507;SDS011;745;48.586;10.032;2022-12-08T15:23:59;21.33;;;13.20;;
1507;SDS011;745;48.586;10.032;2022-12-08T15:28:30;18.20;;;13.23;;
1507;SDS011;745;48.586;10.032;2022-12-08T15:33:00;20.03;;;12.83;;
1507;SDS011;745;48.586;10.032;2022-12-08T15:37:31;21.60;;;13.90;;
1507;SDS011;745;48.586;10.032;2022-12-08T15:42:02;18.00;;;13.13;;
1507;SDS011;745;48.586;10.032;2022-12-08T15:46:33;19.10;;;13.00;;
1507;SDS011;745;48.586;10.032;2022-12-08T15:51:04;17.20;;;12.30;;
1507;SDS011;745;48.586;10.032;2022-12-08T15:55:35;23.40;;;16.40;;
1507;SDS011;745;48.586;10.032;2022-12-08T16:00:05;23.20;;;16.63;;
1507;SDS011;745;48.586;10.032;2022-12-08T16:04:40;25.90;;;16.20;;
1507;SDS011;745;48.586;10.032;2022-12-08T16:09:14;23.63;;;15.80;;
1507;SDS011;745;48.586;10.032;2022-12-08T16:13:46;19.20;;;13.20;;
1507;SDS011;745;48.586;10.032;2022-12-08T16:18:24;17.77;;;13.40;;
1507;SDS011;745;48.586;10.032;2022-12-08T16:22:56;19.40;;;13.37;;
1507;SDS011;745;48.586;10.032;2022-12-08T16:27:28;17.37;;;12.30;;
1507;SDS011;745;48.586;10.032;2022-12-08T16:32:00;19.67;;;13.03;;
1507;SDS011;745;48.586;10.032;2022-12-08T16:36:31;18.63;;;11.53;;
1507;SDS011;745;48.586;10.032;2022-12-08T16:41:01;13.67;;;10.50;;
1507;SDS011;745;48.586;10.032;2022-12-08T16:45:50;18.30;;;12.97;;
1507;SDS011;745;48.586;10.032;2022-12-08T16:50:22;21.73;;;14.80;;
1507;SDS011;745;48.586;10.032;2022-12-08T16:54:55;18.37;;;13.60;;
1507;SDS011;745;48.586;10.032;2022-12-08T16:59:26;16.70;;;11.83;;
1507;SDS011;745;48.586;10.032;2022-12-08T17:03:57;17.00;;;12.23;;
1507;SDS011;745;48.586;10.032;2022-12-08T17:08:28;17.27;;;12.70;;
1507;SDS011;745;48.586;10.032;2022-12-08T17:13:01;19.27;;;13.50;;
1507;SDS011;745;48.586;10.032;2022-12-08T17:17:32;16.80;;;12.20;;
1507;SDS011;745;48.586;10.032;2022-12-08T17:22:04;22.87;;;15.53;;
1507;SDS011;745;48.586;10.032;2022-12-08T17:26:35;20.30;;;14.10;;
1507;SDS011;745;48.586;10.032;2022-12-08T17:31:09;16.20;;;12.83;;
1507;SDS011;745;48.586;10.032;2022-12-08T17:35:45;13.63;;;11.20;;
1507;SDS011;745;48.586;10.032;2022-12-08T17:40:19;15.63;;;10.80;;
1507;SDS011;745;48.586;10.032;2022-12-08T17:44:50;13.40;;;10.37;;
1507;SDS011;745;48.586;10.032;2022-12-08T17:49:22;12.37;;;9.40;;
1507;SDS011;745;48.586;10.032;2022-12-08T17:53:53;13.20;;;9.00;;
1507;SDS011;745;48.586;10.032;2022-12-08T17:58:24;12.03;;;8.97;;
1507;SDS011;745;48.586;10.032;2022-12-08T18:02:55;9.47;;;6.60;;
1507;SDS011;745;48.586;10.032;2022-12-08T18:07:26;6.63;;;5.90;;
1507;SDS011;745;48.586;10.032;2022-12-08T18:11:56;6.03;;;5.40;;
1507;SDS011;745;48.586;10.032;2022-12-08T18:16:27;6.40;;;5.50;;
1507;SDS011;745;48.586;10.032;2022-12-08T18:20:57;6.30;;;4.57;;
1507;SDS011;745;48.586;10.032;2022-12-08T18:25:28;4.30;;;3.57;;
1507;SDS011;745;48.586;10.032;2022-12-08T18:29:59;4.20;;;3.73;;
1507;SDS011;745;48.586;10.032;2022-12-08T18:34:30;4.73;;;4.03;;
1507;SDS011;745;48.586;10.032;2022-12-08T18:39:02;4.80;;;4.30;;
1507;SDS011;745;48.586;10.032;2022-12-08T18:43:33;5.53;;;4.83;;
1507;SDS011;745;48.586;10.032;2022-12-08T18:48:04;4.27;;;3.83;;
1507;SDS011;745;48.586;10.032;2022-12-08T18:52:35;4.87;;;4.37;;
1507;SDS011;745;48.586;10.032;2022-12-08T18:57:05;5.20;;;3.67;;
1507;SDS011;745;48.586;10.032;2022-12-08T19:01:37;3.90;;;3.20;;
1507;SDS011;745;48.586;10.032;2022-12-08T19:06:08;3.53;;;3.20;;
1507;SDS011;745;48.586;10.032;2022-12-08T19:10:39;3.33;;;3.07;;
1507;SDS011;745;48.586;10.032;2022-12-08T19:15:09;3.80;;;3.40;;
1507;SDS011;745;48.586;10.032;2022-12-08T19:19:40;3.83;;;3.50;;
1507;SDS011;745;48.586;10.032;2022-12-08T19:24:11;3.30;;;3.00;;
1507;SDS011;745;48.586;10.032;2022-12-08T19:28:41;3.53;;;3.00;;
1507;SDS011;745;48.586;10.032;2022-12-08T19:33:12;3.23;;;2.67;;
1507;SDS011;745;48.586;10.032;2022-12-08T19:37:43;5.33;;;3.70;;
1507;SDS011;745;48.586;10.032;2022-12-08T19:42:15;5.23;;;4.67;;
1507;SDS011;745;48.586;10.032;2022-12-08T19:47:07;4.87;;;4.27;;
1507;SDS011;745;48.586;10.032;2022-12-08T19:51:38;5.73;;;4.87;;
1507;SDS011;745;48.586;10.032;2022-12-08T19:56:08;8.10;;;5.73;;
1507;SDS011;745;48.586;10.032;2022-12-08T20:00:39;5.20;;;4.23;;
1507;SDS011;745;48.586;10.032;2022-12-08T20:05:10;7.57;;;4.23;;
1507;SDS011;745;48.586;10.032;2022-12-08T20:09:41;5.23;;;3.70;;
1507;SDS011;745;48.586;10.032;2022-12-08T20:14:12;4.00;;;3.23;;
1507;SDS011;745;48.586;10.032;2022-12-08T20:18:43;3.57;;;3.10;;
1507;SDS011;745;48.586;10.032;2022-12-08T20:23:13;4.23;;;3.60;;
1507;SDS011;745;48.586;10.032;2022-12-08T20:27:44;3.47;;;3.17;;
1507;SDS011;745;48.586;10.032;2022-12-08T20:32:15;3.40;;;3.07;;
1507;SDS011;745;48.586;10.032;2022-12-08T20:36:45;3.63;;;3.10;;
1507;SDS011;745;48.586;10.032;2022-12-08T20:41:16;3.77;;;2.83;;
1507;SDS011;745;48.586;10.032;2022-12-08T20:45:47;3.00;;;2.70;;
1507;SDS011;745;48.586;10.032;2022-12-08T20:50:18;2.70;;;2.50;;
1507;SDS011;745;48.586;10.032;2022-12-08T20:54:48;3.20;;;2.60;;
1507;SDS011;745;48.586;10.032;2022-12-08T20:59:18;2.80;;;2.37;;
1507;SDS011;745;48.586;10.032;2022-12-08T21:03:49;3.10;;;2.33;;
1507;SDS011;745;48.586;10.032;2022-12-08T21:08:20;2.60;;;2.40;;
1507;SDS011;745;48.586;10.032;2022-12-08T21:12:53;3.57;;;2.83;;
1507;SDS011;745;48.586;10.032;2022-12-08T21:17:24;3.10;;;2.57;;
1507;SDS011;745;48.586;10.032;2022-12-08T21:21:55;3.20;;;2.90;;
1507;SDS011;745;48.586;10.032;2022-12-08T21:26:25;4.73;;;3.03;;
1507;SDS011;745;48.586;10.032;2022-12-08T21:30:56;3.80;;;2.90;;
1507;SDS011;745;48.586;10.032;2022-12-08T21:35:27;4.07;;;2.97;;
1507;SDS011;745;48.586;10.032;2022-12-08T21:39:57;4.27;;;2.83;;
1507;SDS011;745;48.586;10.032;2022-12-08T21:44:28;2.73;;;2.50;;
1507;SDS011;745;48.586;10.032;2022-12-08T21:48:58;3.53;;;3.10;;
1507;SDS011;745;48.586;10.032;2022-12-08T21:53:29;4.70;;;3.20;;
1507;SDS011;745;48.586;10.032;2022-12-08T21:58:02;3.27;;;2.70;;
1507;SDS011;745;48.586;10.032;2022-12-08T22:02:32;3.83;;;3.20;;
1507;SDS011;745;48.586;10.032;2022-12-08T22:07:07;4.43;;;3.20;;
1507;SDS011;745;48.586;10.032;2022-12-08T22:11:38;3.50;;;2.83;;
1507;SDS011;745;48.586;10.032;2022-12-08T22:16:09;3.07;;;2.70;;
1507;SDS011;745;48.586;10.032;2022-12-08T22:20:40;5.13;;;3.90;;
1507;SDS011;745;48.586;10.032;2022-12-08T22:25:10;4.07;;;3.47;;
1507;SDS011;745;48.586;10.032;2022-12-08T22:29:41;5.00;;;3.67;;
1507;SDS011;745;48.586;10.032;2022-12-08T22:34:11;7.70;;;5.43;;
1507;SDS011;745;48.586;10.032;2022-12-08T22:38:43;14.70;;;9.63;;
1507;SDS011;745;48.586;10.032;2022-12-08T22:43:14;16.27;;;10.60;;
1507;SDS011;745;48.586;10.032;2022-12-08T22:47:44;19.83;;;12.20;;
1507;SDS011;745;48.586;10.032;2022-12-08T22:52:14;24.00;;;13.27;;
1507;SDS011;745;48.586;10.032;2022-12-08T22:56:45;21.27;;;12.63;;
1507;SDS011;745;48.586;10.032;2022-12-08T23:01:25;21.63;;;12.47;;
1507;SDS011;745;48.586;10.032;2022-12-08T23:05:58;13.40;;;10.30;;
1507;SDS011;745;48.586;10.032;2022-12-08T23:10:29;16.30;;;10.47;;
1507;SDS011;745;48.586;10.032;2022-12-08T23:14:59;16.17;;;10.10;;
1507;SDS011;745;48.586;10.032;2022-12-08T23:19:30;18.90;;;12.40;;
1507;SDS011;745;48.586;10.032;2022-12-08T23:24:00;18.53;;;11.73;;
1507;SDS011;745;48.586;10.032;2022-12-08T23:28:31;14.80;;;10.50;;
1507;SDS011;745;48.586;10.032;2022-12-08T23:33:01;16.20;;;10.60;;
1507;SDS011;745;48.586;10.032;2022-12-08T23:37:32;12.53;;;8.37;;
1507;SDS011;745;48.586;10.032;2022-12-08T23:42:02;12.83;;;8.20;;
1507;SDS011;745;48.586;10.032;2022-12-08T23:46:33;11.10;;;8.40;;
1507;SDS011;745;48.586;10.032;2022-12-08T23:51:03;13.60;;;8.97;;
1507;SDS011;745;48.586;10.032;2022-12-08T23:55:34;12.50;;;8.33;;
